createdAt,value
2019-04-20T00:01:21.079Z,14.74
2019-04-20T00:03:45.131Z,14.66
2019-04-20T00:06:11.291Z,14.75
2019-04-20T00:08:41.054Z,14.78
2019-04-20T00:11:14.178Z,14.68
2019-04-20T00:13:47.733Z,14.62
2019-04-20T00:16:04.366Z,14.43
2019-04-20T00:18:38.564Z,14.34
2019-04-20T00:21:20.831Z,14.22
2019-04-20T00:23:51.453Z,14.25
2019-04-20T00:26:43.921Z,14.11
2019-04-20T00:29:14.354Z,13.95
2019-04-20T00:31:35.365Z,14.00
2019-04-20T00:34:02.361Z,13.82
2019-04-20T00:36:22.112Z,13.91
2019-04-20T00:38:53.633Z,13.80
2019-04-20T00:41:20.363Z,13.83
2019-04-20T00:43:47.154Z,13.96
2019-04-20T00:46:22.191Z,13.85
2019-04-20T00:48:53.760Z,13.80
2019-04-20T00:51:37.628Z,13.74
2019-04-20T00:53:48.362Z,13.62
2019-04-20T00:56:11.980Z,13.63
2019-04-20T00:58:52.276Z,13.58
2019-04-20T01:01:30.783Z,13.73
2019-04-20T01:03:52.040Z,13.59
2019-04-20T01:06:41.236Z,13.49
2019-04-20T01:09:07.428Z,13.33
2019-04-20T01:11:40.046Z,13.27
2019-04-20T01:14:09.061Z,13.33
2019-04-20T01:16:38.676Z,13.35
2019-04-20T01:19:00.944Z,13.35
2019-04-20T01:21:30.409Z,13.30
2019-04-20T01:24:01.528Z,13.19
2019-04-20T01:26:26.545Z,13.09
2019-04-20T01:29:06.583Z,13.12
2019-04-20T01:31:33.961Z,13.08
2019-04-20T01:34:00.669Z,12.97
2019-04-20T01:36:40.634Z,12.86
2019-04-20T01:39:02.803Z,12.88
2019-04-20T01:41:18.254Z,12.90
2019-04-20T01:43:46.117Z,12.67
2019-04-20T01:46:18.239Z,12.64
2019-04-20T01:48:43.106Z,12.52
2019-04-20T01:51:17.523Z,12.59
2019-04-20T01:54:02.136Z,12.74
2019-04-20T01:56:32.915Z,12.59
2019-04-20T01:59:20.011Z,12.77
2019-04-20T02:01:55.175Z,12.62
2019-04-20T02:04:40.419Z,12.58
2019-04-20T02:07:06.706Z,12.43
2019-04-20T02:09:37.928Z,12.43
2019-04-20T02:12:09.293Z,12.34
2019-04-20T02:14:37.750Z,12.19
2019-04-20T02:17:09.560Z,12.11
2019-04-20T02:19:42.785Z,12.03
2019-04-20T02:22:13.584Z,11.89
2019-04-20T02:24:27.996Z,11.81
2019-04-20T02:26:55.709Z,11.74
2019-04-20T02:29:58.190Z,11.81
2019-04-20T02:35:07.191Z,11.89
2019-04-20T02:38:01.264Z,11.91
2019-04-20T02:45:28.605Z,12.00
2019-04-20T02:47:47.258Z,11.91
2019-04-20T02:50:15.284Z,11.89
2019-04-20T02:55:09.244Z,11.72
2019-04-20T02:57:47.718Z,11.68
2019-04-20T03:02:23.651Z,11.59
2019-04-20T03:04:42.474Z,11.68
2019-04-20T03:07:20.653Z,11.70
2019-04-20T03:09:54.320Z,11.72
2019-04-20T03:12:29.147Z,11.68
2019-04-20T03:14:47.778Z,11.51
2019-04-20T03:17:24.690Z,11.51
2019-04-20T03:19:46.418Z,11.46
2019-04-20T03:22:26.608Z,11.49
2019-04-20T03:24:48.585Z,11.44
2019-04-20T03:27:16.149Z,11.36
2019-04-20T03:29:56.177Z,11.28
2019-04-20T03:35:10.075Z,11.20
2019-04-20T03:37:34.716Z,11.24
2019-04-20T03:39:50.303Z,11.27
2019-04-20T03:42:05.131Z,11.22
2019-04-20T03:44:34.189Z,11.20
2019-04-20T03:47:05.455Z,11.17
2019-04-20T03:49:56.030Z,11.12
2019-04-20T03:52:58.011Z,11.20
2019-04-20T03:55:43.121Z,11.10
2019-04-20T03:58:02.824Z,10.91
2019-04-20T04:00:36.496Z,10.93
2019-04-20T04:03:20.246Z,10.89
2019-04-20T04:05:55.530Z,10.68
2019-04-20T04:08:24.804Z,10.82
2019-04-20T04:11:01.492Z,10.64
2019-04-20T04:13:16.636Z,10.63
2019-04-20T04:15:50.116Z,10.72
2019-04-20T04:18:19.759Z,10.79
2019-04-20T04:20:49.984Z,10.85
2019-04-20T04:23:28.689Z,10.82
2019-04-20T04:26:00.692Z,10.63
2019-04-20T04:28:27.257Z,10.65
2019-04-20T04:30:59.427Z,10.52
2019-04-20T04:33:46.192Z,10.61
2019-04-20T04:35:55.739Z,10.67
2019-04-20T04:38:28.955Z,10.54
2019-04-20T04:41:01.953Z,10.47
2019-04-20T04:43:21.174Z,10.49
2019-04-20T04:45:33.248Z,10.53
2019-04-20T04:47:59.811Z,10.46
2019-04-20T04:50:29.594Z,10.47
2019-04-20T04:53:04.676Z,10.46
2019-04-20T04:55:39.449Z,10.48
2019-04-20T04:57:55.791Z,10.60
2019-04-20T05:00:29.188Z,10.35
2019-04-20T05:03:00.920Z,10.30
2019-04-20T05:05:58.875Z,10.19
2019-04-20T05:08:14.452Z,10.31
2019-04-20T05:10:32.994Z,10.49
2019-04-20T05:13:00.813Z,10.53
2019-04-20T05:15:37.844Z,10.49
2019-04-20T05:18:18.355Z,10.41
2019-04-20T05:20:46.914Z,10.44
2019-04-20T05:23:24.328Z,10.34
2019-04-20T05:26:15.666Z,10.43
2019-04-20T05:28:33.605Z,10.32
2019-04-20T05:30:55.872Z,10.40
2019-04-20T05:33:29.506Z,10.54
2019-04-20T05:36:05.668Z,10.53
2019-04-20T05:38:41.834Z,10.56
2019-04-20T05:41:01.699Z,10.60
2019-04-20T05:43:43.154Z,10.61
2019-04-20T05:46:16.927Z,10.75
2019-04-20T05:48:45.733Z,10.84
2019-04-20T05:51:12.340Z,10.86
2019-04-20T05:53:40.531Z,10.83
2019-04-20T05:56:02.631Z,10.83
2019-04-20T05:58:33.055Z,10.85
2019-04-20T06:01:10.831Z,10.98
2019-04-20T06:03:32.233Z,11.14
2019-04-20T06:06:08.330Z,11.27
2019-04-20T06:11:04.161Z,11.47
2019-04-20T06:13:29.925Z,11.59
2019-04-20T06:16:12.896Z,11.67
2019-04-20T06:18:45.891Z,11.61
2019-04-20T06:21:29.108Z,11.60
2019-04-20T06:24:19.261Z,11.70
2019-04-20T06:26:54.052Z,11.92
2019-04-20T06:29:20.502Z,12.21
2019-04-20T06:31:45.443Z,12.30
2019-04-20T06:36:54.261Z,12.34
2019-04-20T06:44:23.791Z,12.91
2019-04-20T06:47:00.146Z,12.94
2019-04-20T06:49:22.901Z,12.96
2019-04-20T06:51:59.314Z,13.11
2019-04-20T06:54:21.829Z,13.30
2019-04-20T06:57:01.728Z,13.41
2019-04-20T06:59:36.022Z,13.61
2019-04-20T07:02:02.963Z,13.69
2019-04-20T07:07:07.065Z,13.90
2019-04-20T07:09:32.454Z,14.01
2019-04-20T07:11:50.517Z,14.14
2019-04-20T07:14:07.807Z,14.39
2019-04-20T07:16:52.936Z,14.33
2019-04-20T07:19:24.042Z,14.52
2019-04-20T07:22:30.075Z,14.73
2019-04-20T07:24:56.450Z,14.83
2019-04-20T07:27:19.613Z,15.04
2019-04-20T07:29:54.614Z,15.22
2019-04-20T07:32:12.133Z,15.39
2019-04-20T07:34:47.684Z,15.58
2019-04-20T07:39:53.974Z,15.85
2019-04-20T07:42:27.298Z,16.03
2019-04-20T07:44:48.862Z,16.03
2019-04-20T07:47:23.950Z,16.10
2019-04-20T07:49:42.025Z,16.21
2019-04-20T07:51:55.629Z,16.33
2019-04-20T07:54:53.124Z,16.60
2019-04-20T07:57:14.506Z,16.76
2019-04-20T07:59:36.039Z,16.91
2019-04-20T08:02:36.597Z,16.96
2019-04-20T08:05:06.067Z,17.07
2019-04-20T08:07:35.153Z,17.31
2019-04-20T08:09:55.566Z,17.58
2019-04-20T08:12:51.649Z,17.76
2019-04-20T08:15:24.061Z,17.90
2019-04-20T08:17:51.057Z,18.08
2019-04-20T08:20:09.997Z,18.15
2019-04-20T08:22:42.205Z,18.29
2019-04-20T08:25:03.520Z,18.46
2019-04-20T08:27:23.375Z,18.48
2019-04-20T08:30:09.031Z,18.67
2019-04-20T08:33:11.123Z,18.82
2019-04-20T08:35:47.699Z,18.97
2019-04-20T08:38:47.315Z,19.09
2019-04-20T08:40:43.738Z,19.26
2019-04-20T08:43:23.969Z,19.38
2019-04-20T08:45:42.017Z,19.44
2019-04-20T08:48:19.013Z,19.44
2019-04-20T08:50:45.007Z,19.56
2019-04-20T08:53:20.477Z,19.77
2019-04-20T08:55:42.523Z,19.76
2019-04-20T08:57:56.486Z,19.72
2019-04-20T09:00:29.662Z,19.92
2019-04-20T09:03:00.212Z,20.11
2019-04-20T09:05:34.961Z,20.25
2019-04-20T09:08:02.434Z,20.28
2019-04-20T09:10:45.474Z,20.45
2019-04-20T09:13:05.419Z,20.60
2019-04-20T09:15:25.329Z,20.67
2019-04-20T09:18:09.381Z,20.74
2019-04-20T09:20:42.467Z,20.88
2019-04-20T09:23:16.888Z,20.97
2019-04-20T09:28:28.501Z,20.79
2019-04-20T09:31:02.571Z,20.79
2019-04-20T09:33:51.701Z,20.72
2019-04-20T09:36:24.163Z,20.90
2019-04-20T09:39:25.686Z,21.15
2019-04-20T09:42:21.986Z,21.19
2019-04-20T09:44:58.979Z,21.09
2019-04-20T09:47:33.766Z,21.15
2019-04-20T09:50:03.384Z,21.38
2019-04-20T09:52:38.190Z,21.49
2019-04-20T09:55:10.350Z,21.43
2019-04-20T09:57:43.890Z,21.46
2019-04-20T10:00:13.336Z,21.70
2019-04-20T10:02:28.130Z,21.55
2019-04-20T10:04:55.612Z,21.75
2019-04-20T10:07:26.174Z,22.06
2019-04-20T10:09:53.873Z,22.33
2019-04-20T10:12:21.855Z,22.18
2019-04-20T10:14:50.871Z,22.19
2019-04-20T10:17:18.170Z,22.34
2019-04-20T10:19:46.533Z,22.60
2019-04-20T10:22:14.854Z,22.75
2019-04-20T10:24:42.342Z,22.75
2019-04-20T10:27:10.717Z,22.84
2019-04-20T10:29:37.619Z,22.82
2019-04-20T10:32:10.240Z,22.85
2019-04-20T10:34:34.745Z,22.70
2019-04-20T10:37:21.733Z,22.84
2019-04-20T10:39:48.967Z,23.10
2019-04-20T10:42:16.448Z,23.38
2019-04-20T10:44:43.284Z,23.52
2019-04-20T10:47:16.918Z,23.46
2019-04-20T10:49:45.148Z,23.40
2019-04-20T10:52:14.115Z,23.64
2019-04-20T10:54:41.134Z,23.79
2019-04-20T10:57:08.097Z,23.63
2019-04-20T10:59:37.284Z,23.53
2019-04-20T11:02:10.219Z,23.77
2019-04-20T11:04:38.737Z,23.68
2019-04-20T11:07:08.315Z,23.75
2019-04-20T11:09:36.623Z,23.74
2019-04-20T11:12:08.196Z,24.02
2019-04-20T11:14:40.271Z,24.28
2019-04-20T11:17:06.613Z,24.50
2019-04-20T11:19:37.544Z,24.28
2019-04-20T11:22:06.137Z,24.45
2019-04-20T11:24:34.427Z,24.64
2019-04-20T11:27:02.415Z,24.70
2019-04-20T11:29:36.061Z,24.74
2019-04-20T11:32:07.281Z,24.42
2019-04-20T11:34:40.842Z,23.92
2019-04-20T11:37:15.302Z,24.20
2019-04-20T11:39:47.336Z,24.58
2019-04-20T11:42:15.530Z,24.80
2019-04-20T11:44:44.654Z,24.72
2019-04-20T11:47:12.567Z,25.03
2019-04-20T11:49:43.786Z,25.21
2019-04-20T11:52:16.879Z,25.19
2019-04-20T11:54:42.332Z,25.29
2019-04-20T11:57:09.292Z,25.44
2019-04-20T11:59:43.165Z,25.29
2019-04-20T12:02:39.814Z,25.51
2019-04-20T12:05:19.768Z,25.80
2019-04-20T12:08:07.016Z,26.07
2019-04-20T12:10:37.215Z,26.13
2019-04-20T12:13:06.221Z,26.30
2019-04-20T12:15:36.515Z,26.12
2019-04-20T12:18:02.772Z,26.18
2019-04-20T12:20:29.775Z,26.15
2019-04-20T12:22:58.180Z,25.68
2019-04-20T12:25:28.206Z,25.89
2019-04-20T12:27:58.996Z,25.89
2019-04-20T12:30:25.898Z,25.61
2019-04-20T12:32:57.668Z,25.94
2019-04-20T12:35:22.376Z,26.20
2019-04-20T12:37:49.365Z,26.61
2019-04-20T12:40:17.379Z,26.91
2019-04-20T12:42:46.643Z,26.94
2019-04-20T12:45:13.647Z,26.38
2019-04-20T12:47:41.696Z,26.41
2019-04-20T12:50:09.709Z,26.72
2019-04-20T12:52:36.603Z,26.31
2019-04-20T12:55:05.209Z,26.42
2019-04-20T12:57:32.660Z,26.68
2019-04-20T12:59:59.509Z,26.12
2019-04-20T13:02:29.802Z,26.43
2019-04-20T13:04:59.521Z,26.86
2019-04-20T13:07:27.216Z,27.21
2019-04-20T13:09:58.870Z,27.49
2019-04-20T13:12:40.664Z,26.99
2019-04-20T13:15:28.795Z,27.09
2019-04-20T13:17:58.922Z,26.79
2019-04-20T13:20:28.422Z,26.48
2019-04-20T13:22:55.196Z,26.88
2019-04-20T13:25:23.201Z,27.35
2019-04-20T13:27:50.455Z,27.74
2019-04-20T13:30:17.962Z,27.80
2019-04-20T13:32:45.721Z,27.39
2019-04-20T13:35:16.296Z,26.81
2019-04-20T13:37:44.023Z,26.96
2019-04-20T13:40:13.422Z,27.23
2019-04-20T13:42:43.408Z,27.76
2019-04-20T13:45:11.000Z,28.13
2019-04-20T13:47:39.048Z,28.45
2019-04-20T13:50:07.254Z,28.34
2019-04-20T13:52:35.069Z,28.70
2019-04-20T13:55:02.405Z,28.95
2019-04-20T13:57:42.028Z,28.80
2019-04-20T14:00:28.752Z,28.55
2019-04-20T14:03:02.814Z,28.86
2019-04-20T14:05:31.348Z,29.24
2019-04-20T14:08:00.467Z,29.33
2019-04-20T14:10:27.320Z,29.22
2019-04-20T14:13:01.679Z,29.22
2019-04-20T14:15:25.392Z,28.88
2019-04-20T14:17:53.122Z,28.70
2019-04-20T14:20:22.032Z,29.01
2019-04-20T14:22:49.217Z,28.45
2019-04-20T14:25:15.955Z,28.35
2019-04-20T14:27:42.792Z,28.55
2019-04-20T14:30:11.068Z,28.82
2019-04-20T14:32:38.867Z,29.49
2019-04-20T14:35:07.128Z,29.32
2019-04-20T14:37:35.885Z,29.48
2019-04-20T14:40:04.223Z,29.05
2019-04-20T14:42:41.888Z,28.99
2019-04-20T14:44:59.974Z,29.26
2019-04-20T14:47:27.920Z,29.75
2019-04-20T14:49:56.702Z,30.09
2019-04-20T14:52:23.863Z,30.03
2019-04-20T14:54:50.887Z,30.16
2019-04-20T14:57:19.200Z,30.52
2019-04-20T14:59:56.000Z,30.03
2019-04-20T15:02:26.046Z,30.37
2019-04-20T15:04:52.992Z,30.40
2019-04-20T15:07:22.646Z,29.78
2019-04-20T15:09:51.059Z,29.56
2019-04-20T15:12:19.023Z,29.34
2019-04-20T15:14:46.836Z,29.49
2019-04-20T15:20:19.310Z,30.01
2019-04-20T15:22:49.829Z,30.37
2019-04-20T15:25:17.806Z,30.31
2019-04-20T15:27:46.328Z,30.54
2019-04-20T15:30:14.166Z,30.40
2019-04-20T15:32:41.288Z,30.42
2019-04-20T15:35:09.027Z,30.11
2019-04-20T15:37:37.291Z,30.48
2019-04-20T15:40:05.186Z,30.70
2019-04-20T15:42:47.904Z,30.49
2019-04-20T15:45:05.337Z,30.59
2019-04-20T15:47:34.099Z,30.58
2019-04-20T15:50:05.330Z,30.81
2019-04-20T15:52:37.670Z,30.91
2019-04-20T15:55:10.176Z,30.68
2019-04-20T15:57:32.842Z,30.69
2019-04-20T16:00:02.700Z,30.63
2019-04-20T16:02:54.998Z,29.83
2019-04-20T16:05:41.001Z,29.12
2019-04-20T16:08:28.201Z,29.74
2019-04-20T16:10:57.118Z,30.07
2019-04-20T16:13:31.342Z,30.26
2019-04-20T16:15:55.996Z,29.78
2019-04-20T16:18:23.116Z,29.99
2019-04-20T16:21:01.349Z,30.29
2019-04-20T16:23:20.814Z,30.47
2019-04-20T16:25:53.407Z,30.82
2019-04-20T16:28:23.734Z,30.98
2019-04-20T16:30:51.687Z,30.76
2019-04-20T16:33:18.744Z,31.17
2019-04-20T16:35:46.818Z,31.11
2019-04-20T16:38:14.168Z,31.49
2019-04-20T16:40:42.090Z,31.39
2019-04-20T16:43:17.693Z,31.25
2019-04-20T16:45:39.157Z,30.25
2019-04-20T16:48:06.760Z,30.45
2019-04-20T16:50:35.134Z,30.95
2019-04-20T16:53:02.524Z,31.02
2019-04-20T16:55:30.534Z,31.25
2019-04-20T16:57:57.715Z,30.83
2019-04-20T17:00:25.429Z,29.95
2019-04-20T17:02:54.318Z,28.51
2019-04-20T17:05:21.334Z,28.30
2019-04-20T17:07:50.948Z,28.84
2019-04-20T17:10:18.024Z,28.81
2019-04-20T17:12:46.028Z,28.84
2019-04-20T17:15:14.244Z,28.45
2019-04-20T17:17:41.242Z,28.22
2019-04-20T17:20:09.294Z,28.11
2019-04-20T17:22:37.208Z,27.99
2019-04-20T17:25:05.863Z,27.82
2019-04-20T17:27:59.460Z,27.57
2019-04-20T17:30:58.982Z,27.60
2019-04-20T17:33:54.874Z,27.41
2019-04-20T17:36:15.624Z,27.34
2019-04-20T17:38:47.112Z,27.35
2019-04-20T17:41:23.771Z,27.24
2019-04-20T17:43:58.847Z,27.20
2019-04-20T17:46:17.418Z,27.26
2019-04-20T17:48:46.817Z,26.84
2019-04-20T17:51:25.024Z,26.69
2019-04-20T17:53:55.946Z,26.59
2019-04-20T17:56:20.270Z,26.44
2019-04-20T17:58:48.321Z,26.39
2019-04-20T18:01:51.186Z,26.36
2019-04-20T18:04:46.176Z,26.08
2019-04-20T18:06:50.174Z,25.93
2019-04-20T18:09:34.512Z,25.87
2019-04-20T18:11:44.704Z,25.89
2019-04-20T18:14:24.208Z,25.77
2019-04-20T18:17:01.117Z,25.86
2019-04-20T18:19:21.743Z,25.76
2019-04-20T18:21:51.675Z,25.36
2019-04-20T18:24:42.433Z,25.15
2019-04-20T18:27:09.601Z,25.08
2019-04-20T18:29:40.834Z,24.99
2019-04-20T18:31:55.800Z,25.10
2019-04-20T18:34:34.178Z,25.20
2019-04-20T18:37:08.621Z,25.16
2019-04-20T18:39:38.723Z,25.12
2019-04-20T18:42:10.202Z,25.04
2019-04-20T18:44:55.833Z,24.99
2019-04-20T18:47:23.844Z,24.91
2019-04-20T18:49:43.119Z,24.84
2019-04-20T18:52:01.960Z,24.80
2019-04-20T18:54:34.337Z,24.68
2019-04-20T18:56:59.687Z,24.46
2019-04-20T18:59:31.741Z,24.43
2019-04-20T19:01:57.015Z,24.27
2019-04-20T19:04:27.856Z,24.38
2019-04-20T19:06:56.052Z,24.32
2019-04-20T19:09:29.769Z,24.16
2019-04-20T19:12:00.387Z,23.99
2019-04-20T19:14:46.206Z,23.83
2019-04-20T19:17:40.964Z,23.72
2019-04-20T19:19:59.657Z,23.52
2019-04-20T19:22:26.100Z,23.46
2019-04-20T19:24:53.918Z,23.46
2019-04-20T19:27:30.264Z,23.48
2019-04-20T19:29:59.224Z,23.40
2019-04-20T19:32:38.489Z,23.18
2019-04-20T19:34:59.381Z,23.18
2019-04-20T19:37:26.028Z,23.12
2019-04-20T19:40:02.377Z,22.86
2019-04-20T19:42:33.208Z,22.72
2019-04-20T19:44:58.013Z,22.54
2019-04-20T19:47:32.595Z,22.40
2019-04-20T19:49:56.132Z,22.11
2019-04-20T19:52:36.801Z,21.99
2019-04-20T19:54:56.774Z,21.91
2019-04-20T19:57:25.475Z,21.84
2019-04-20T19:59:43.516Z,21.79
2019-04-20T20:02:05.870Z,21.66
2019-04-20T20:04:42.449Z,21.67
2019-04-20T20:07:05.749Z,21.53
2019-04-20T20:09:41.534Z,21.46
2019-04-20T20:12:09.338Z,21.45
2019-04-20T20:14:39.069Z,21.31
2019-04-20T20:17:19.680Z,21.20
2019-04-20T20:19:54.457Z,21.14
2019-04-20T20:22:13.172Z,21.12
2019-04-20T20:24:29.173Z,20.96
2019-04-20T20:27:02.502Z,20.70
2019-04-20T20:29:34.311Z,20.62
2019-04-20T20:32:08.037Z,20.40
2019-04-20T20:34:30.953Z,20.32
2019-04-20T20:36:59.828Z,20.26
2019-04-20T20:39:28.693Z,20.31
2019-04-20T20:42:01.697Z,20.29
2019-04-20T20:44:33.104Z,20.05
2019-04-20T20:47:02.598Z,20.10
2019-04-20T20:49:40.196Z,20.11
2019-04-20T20:52:09.739Z,20.03
2019-04-20T20:54:34.765Z,19.85
2019-04-20T20:56:57.938Z,19.56
2019-04-20T20:59:30.454Z,19.55
2019-04-20T21:01:52.399Z,19.55
2019-04-20T21:04:12.378Z,19.35
2019-04-20T21:06:40.278Z,19.23
2019-04-20T21:09:08.151Z,19.23
2019-04-20T21:11:40.233Z,18.98
2019-04-20T21:14:15.869Z,18.87
2019-04-20T21:16:46.607Z,18.77
2019-04-20T21:19:23.488Z,18.73
2019-04-20T21:21:49.443Z,18.79
2019-04-20T21:24:17.781Z,18.78
2019-04-20T21:26:53.872Z,18.82
2019-04-20T21:29:30.151Z,18.74
2019-04-20T21:32:01.587Z,18.58
2019-04-20T21:34:24.132Z,18.57
2019-04-20T21:36:55.272Z,18.31
2019-04-20T21:39:31.305Z,18.39
2019-04-20T21:41:56.033Z,18.37
2019-04-20T21:44:24.357Z,18.28
2019-04-20T21:46:51.117Z,18.12
2019-04-20T21:49:33.514Z,17.99
2019-04-20T21:51:51.378Z,17.97
2019-04-20T21:54:12.170Z,17.82
2019-04-20T21:56:46.147Z,17.59
2019-04-20T21:59:16.418Z,17.59
2019-04-20T22:01:39.729Z,17.54
2019-04-20T22:04:08.282Z,17.53
2019-04-20T22:06:42.339Z,17.38
2019-04-20T22:09:12.605Z,17.39
2019-04-20T22:11:39.997Z,17.28
2019-04-20T22:14:12.497Z,17.20
2019-04-20T22:16:42.107Z,17.16
2019-04-20T22:19:17.304Z,17.10
2019-04-20T22:21:48.363Z,17.00
2019-04-20T22:24:13.621Z,16.88
2019-04-20T22:26:39.492Z,16.79
2019-04-20T22:29:00.424Z,16.98
2019-04-20T22:31:27.395Z,16.98
2019-04-20T22:33:54.473Z,16.87
2019-04-20T22:36:24.844Z,16.77
2019-04-20T22:39:11.666Z,16.38
2019-04-20T22:41:52.565Z,16.44
2019-04-20T22:44:20.272Z,16.54
2019-04-20T22:46:44.165Z,16.50
2019-04-20T22:49:28.129Z,16.31
2019-04-20T22:51:52.024Z,16.25
2019-04-20T22:54:23.176Z,15.97
2019-04-20T22:56:54.225Z,15.91
2019-04-20T22:59:13.014Z,15.55
2019-04-20T23:01:46.530Z,15.69
2019-04-20T23:04:08.867Z,15.82
2019-04-20T23:06:40.272Z,15.91
2019-04-20T23:09:10.929Z,15.70
2019-04-20T23:11:37.029Z,15.66
2019-04-20T23:14:04.637Z,15.71
2019-04-20T23:16:37.945Z,15.65
2019-04-20T23:19:00.364Z,15.48
2019-04-20T23:21:27.975Z,15.49
2019-04-20T23:24:00.349Z,15.49
2019-04-20T23:26:30.828Z,15.54
2019-04-20T23:28:56.214Z,15.60
2019-04-20T23:31:24.957Z,15.38
2019-04-20T23:33:49.968Z,15.14
2019-04-20T23:36:19.293Z,15.17
2019-04-20T23:38:48.972Z,15.28
2019-04-20T23:41:17.621Z,15.14
2019-04-20T23:43:54.045Z,15.14
2019-04-20T23:46:53.383Z,15.17
2019-04-20T23:49:29.887Z,15.26
2019-04-20T23:52:22.046Z,15.16
2019-04-20T23:54:26.191Z,14.98
2019-04-20T23:56:50.452Z,14.94
2019-04-20T23:59:30.675Z,14.95
